createdAt,value
2022-09-17T00:01:33.608Z,2.67
2022-09-17T00:04:05.011Z,3.50
2022-09-17T00:06:34.961Z,3.03
2022-09-17T00:09:03.680Z,4.25
2022-09-17T00:11:35.111Z,3.00
2022-09-17T00:14:05.202Z,2.72
2022-09-17T00:16:36.453Z,1.25
2022-09-17T00:19:08.302Z,1.73
2022-09-17T00:21:36.410Z,2.80
2022-09-17T00:24:06.565Z,3.78
2022-09-17T00:26:36.805Z,2.60
2022-09-17T00:29:05.709Z,2.05
2022-09-17T00:31:34.329Z,1.43
2022-09-17T00:34:03.715Z,1.90
2022-09-17T00:36:35.400Z,1.45
2022-09-17T00:39:04.595Z,2.17
2022-09-17T00:41:34.876Z,2.38
2022-09-17T00:44:23.881Z,1.83
2022-09-17T00:46:53.562Z,3.47
2022-09-17T00:49:25.522Z,1.70
2022-09-17T00:52:00.453Z,2.40
2022-09-17T00:54:29.398Z,7.03
2022-09-17T00:56:58.722Z,5.45
2022-09-17T00:59:27.893Z,3.33
2022-09-17T01:01:56.090Z,4.32
2022-09-17T01:04:25.800Z,5.57
2022-09-17T01:07:04.280Z,5.93
2022-09-17T01:09:42.086Z,2.65
2022-09-17T01:12:22.661Z,3.55
2022-09-17T01:15:16.463Z,3.10
2022-09-17T01:17:51.654Z,3.85
2022-09-17T01:21:14.150Z,4.25
2022-09-17T01:24:24.820Z,5.80
2022-09-17T01:27:19.676Z,4.13
2022-09-17T01:30:02.736Z,3.88
2022-09-17T01:32:40.310Z,3.75
2022-09-17T01:35:17.547Z,5.35
2022-09-17T01:37:56.378Z,2.83
2022-09-17T01:40:30.101Z,4.70
2022-09-17T01:43:03.140Z,3.50
2022-09-17T01:45:37.873Z,3.53
2022-09-17T01:48:13.876Z,3.78
2022-09-17T01:50:47.107Z,4.70
2022-09-17T01:53:17.486Z,5.65
2022-09-17T01:55:48.356Z,3.28
2022-09-17T01:58:23.162Z,3.78
2022-09-17T02:00:55.625Z,3.22
2022-09-17T02:03:30.656Z,3.35
2022-09-17T02:06:03.278Z,2.80
2022-09-17T02:08:37.057Z,2.00
2022-09-17T02:11:09.678Z,3.20
2022-09-17T02:13:44.590Z,3.55
2022-09-17T02:16:16.997Z,3.03
2022-09-17T02:18:52.506Z,3.72
2022-09-17T02:21:30.324Z,4.03
2022-09-17T02:24:07.037Z,4.55
2022-09-17T02:26:38.600Z,2.70
2022-09-17T02:29:10.631Z,3.33
2022-09-17T02:31:42.490Z,5.50
2022-09-17T02:34:12.399Z,3.30
2022-09-17T02:39:10.075Z,4.78
2022-09-17T02:41:47.920Z,3.58
2022-09-17T02:44:27.491Z,4.35
2022-09-17T02:47:25.307Z,3.45
2022-09-17T02:50:17.186Z,2.67
2022-09-17T02:53:00.077Z,3.00
2022-09-17T02:55:37.335Z,3.30
2022-09-17T02:58:15.748Z,3.88
2022-09-17T03:00:44.591Z,4.05
2022-09-17T03:03:18.380Z,4.13
2022-09-17T03:05:49.180Z,2.95
2022-09-17T03:08:20.247Z,2.15
2022-09-17T03:10:49.586Z,3.28
2022-09-17T03:13:17.652Z,3.30
2022-09-17T03:15:45.778Z,2.40
2022-09-17T03:18:13.902Z,3.38
2022-09-17T03:20:42.017Z,3.85
2022-09-17T03:23:11.413Z,3.75
2022-09-17T03:25:39.509Z,2.78
2022-09-17T03:28:07.560Z,4.22
2022-09-17T03:30:35.736Z,2.33
2022-09-17T03:33:03.813Z,3.05
2022-09-17T03:35:31.883Z,2.55
2022-09-17T03:38:00.197Z,3.90
2022-09-17T03:40:29.809Z,3.58
2022-09-17T03:42:57.891Z,1.67
2022-09-17T03:45:26.019Z,4.03
2022-09-17T03:47:54.086Z,2.90
2022-09-17T03:50:22.325Z,3.80
2022-09-17T03:52:50.577Z,2.22
2022-09-17T03:55:18.822Z,3.35
2022-09-17T03:57:48.649Z,1.60
2022-09-17T04:02:45.780Z,3.38
2022-09-17T04:05:13.850Z,2.83
2022-09-17T04:07:42.205Z,3.42
2022-09-17T04:10:10.901Z,2.70
2022-09-17T04:12:39.032Z,3.25
2022-09-17T04:15:09.628Z,2.70
2022-09-17T04:17:37.816Z,3.92
2022-09-17T04:20:06.882Z,3.33
2022-09-17T04:22:35.327Z,3.63
2022-09-17T04:25:03.437Z,2.30
2022-09-17T04:27:31.506Z,4.15
2022-09-17T04:29:59.555Z,3.92
2022-09-17T04:32:28.990Z,2.65
2022-09-17T04:34:57.035Z,3.00
2022-09-17T04:37:25.927Z,4.10
2022-09-17T04:39:54.063Z,3.50
2022-09-17T04:42:22.153Z,2.17
2022-09-17T04:44:50.353Z,2.83
2022-09-17T04:47:18.697Z,3.50
2022-09-17T04:49:48.113Z,2.80
2022-09-17T04:52:16.205Z,2.35
2022-09-17T04:54:44.240Z,3.05
2022-09-17T04:57:12.330Z,2.10
2022-09-17T04:59:40.376Z,4.50
2022-09-17T05:02:08.749Z,8.25
2022-09-17T05:04:36.878Z,8.82
2022-09-17T05:07:06.450Z,7.50
2022-09-17T05:12:03.150Z,7.85
2022-09-17T05:14:31.192Z,5.32
2022-09-17T05:16:59.365Z,8.32
2022-09-17T05:19:27.443Z,5.90
2022-09-17T05:21:55.522Z,6.28
2022-09-17T05:24:25.135Z,7.05
2022-09-17T05:26:53.200Z,8.30
2022-09-17T05:29:21.242Z,8.15
2022-09-17T05:31:49.405Z,7.05
2022-09-17T05:34:17.492Z,8.30
2022-09-17T05:36:45.516Z,6.97
2022-09-17T05:39:13.580Z,8.63
2022-09-17T05:41:43.220Z,8.43
2022-09-17T05:44:13.810Z,7.93
2022-09-17T05:46:46.085Z,6.35
2022-09-17T05:49:14.321Z,9.50
2022-09-17T05:51:42.380Z,7.85
2022-09-17T05:54:10.615Z,8.23
2022-09-17T05:56:38.731Z,6.00
2022-09-17T05:59:08.193Z,7.15
2022-09-17T06:01:36.284Z,6.70
2022-09-17T06:04:04.638Z,7.63
2022-09-17T06:06:32.862Z,9.40
2022-09-17T06:09:01.137Z,6.80
2022-09-17T06:11:29.425Z,6.07
2022-09-17T06:13:57.583Z,7.93
2022-09-17T06:16:27.592Z,7.68
2022-09-17T06:21:24.114Z,9.05
2022-09-17T06:23:52.293Z,9.23
2022-09-17T06:26:20.408Z,8.10
2022-09-17T06:28:48.513Z,8.05
2022-09-17T06:31:16.656Z,10.55
2022-09-17T06:33:48.197Z,8.75
2022-09-17T06:36:16.269Z,11.48
2022-09-17T06:38:44.366Z,10.15
2022-09-17T06:41:12.553Z,7.07
2022-09-17T06:43:40.622Z,9.85
2022-09-17T06:46:09.335Z,8.85
2022-09-17T06:48:38.972Z,6.78
2022-09-17T06:51:11.491Z,7.75
2022-09-17T06:53:40.399Z,7.68
2022-09-17T06:56:09.936Z,9.35
2022-09-17T06:58:38.246Z,6.95
2022-09-17T07:01:07.176Z,6.75
2022-09-17T07:03:35.753Z,5.47
2022-09-17T07:06:04.216Z,6.82
2022-09-17T07:08:35.563Z,5.35
2022-09-17T07:11:03.705Z,5.00
2022-09-17T07:13:31.800Z,6.75
2022-09-17T07:16:01.476Z,14.30
2022-09-17T07:18:29.796Z,6.32
2022-09-17T07:20:59.574Z,7.97
2022-09-17T07:23:29.243Z,5.38
2022-09-17T07:26:00.272Z,5.53
2022-09-17T07:28:29.881Z,3.55
2022-09-17T07:30:58.491Z,4.10
2022-09-17T07:33:28.090Z,5.38
2022-09-17T07:35:56.957Z,8.65
2022-09-17T07:38:25.929Z,5.70
2022-09-17T07:40:59.849Z,5.23
2022-09-17T07:43:29.541Z,3.50
2022-09-17T07:45:58.892Z,3.72
2022-09-17T07:48:27.225Z,5.70
2022-09-17T07:50:55.688Z,3.95
2022-09-17T07:53:23.975Z,4.75
2022-09-17T07:55:55.401Z,3.72
2022-09-17T07:58:29.058Z,6.35
2022-09-17T08:01:02.116Z,3.85
2022-09-17T08:03:30.428Z,4.65
2022-09-17T08:06:04.088Z,5.80
2022-09-17T08:08:33.853Z,4.30
2022-09-17T08:11:03.195Z,3.65
2022-09-17T08:13:32.879Z,4.43
2022-09-17T08:18:30.778Z,3.17
2022-09-17T08:20:59.825Z,3.63
2022-09-17T08:23:28.591Z,3.95
2022-09-17T08:25:57.412Z,4.22
2022-09-17T08:28:26.952Z,3.27
2022-09-17T08:31:00.992Z,4.18
2022-09-17T08:33:32.437Z,3.03
2022-09-17T08:36:00.890Z,3.42
2022-09-17T08:38:29.305Z,3.58
2022-09-17T08:41:07.690Z,4.00
2022-09-17T08:43:48.031Z,5.28
2022-09-17T08:46:17.533Z,5.93
2022-09-17T08:51:32.686Z,3.85
2022-09-17T08:54:08.151Z,2.38
2022-09-17T08:56:38.856Z,5.50
2022-09-17T08:59:21.633Z,2.53
2022-09-17T09:02:01.060Z,3.88
2022-09-17T09:04:44.772Z,3.38
2022-09-17T09:07:17.366Z,2.97
2022-09-17T09:09:50.950Z,3.75
2022-09-17T09:12:25.629Z,3.55
2022-09-17T09:14:59.681Z,2.53
2022-09-17T09:17:35.186Z,4.32
2022-09-17T10:03:46.137Z,3.28
2022-09-17T10:06:15.429Z,4.40
2022-09-17T10:11:22.475Z,7.43
2022-09-17T11:36:00.218Z,7.10
2022-09-17T11:38:39.648Z,12.15
2022-09-17T11:41:10.528Z,5.63
2022-09-17T11:43:44.226Z,8.10
2022-09-17T11:46:19.997Z,6.57
2022-09-17T11:48:54.068Z,6.13
2022-09-17T11:51:31.719Z,6.75
2022-09-17T11:54:07.684Z,4.90
2022-09-17T11:56:42.416Z,4.07
2022-09-17T11:59:17.577Z,8.50
2022-09-17T12:01:54.090Z,5.20
2022-09-17T12:04:36.772Z,3.35
2022-09-17T12:07:23.494Z,2.42
2022-09-17T12:09:57.237Z,3.38
2022-09-17T12:12:49.161Z,6.47
2022-09-17T12:15:21.850Z,2.22
2022-09-17T12:18:20.635Z,2.00
2022-09-17T12:20:50.709Z,3.00
2022-09-17T12:23:30.121Z,2.47
2022-09-17T12:26:03.729Z,2.17
2022-09-17T12:28:39.666Z,3.15
2022-09-17T12:31:15.549Z,2.35
2022-09-17T12:33:52.669Z,2.00
2022-09-17T12:36:34.594Z,2.35
2022-09-17T12:39:47.270Z,2.97
2022-09-17T12:42:32.954Z,2.45
2022-09-17T12:45:14.308Z,1.83
2022-09-17T12:48:18.096Z,1.30
2022-09-17T12:50:58.341Z,1.73
2022-09-17T12:53:31.596Z,2.83
2022-09-17T12:56:06.666Z,2.95
2022-09-17T12:58:51.010Z,2.22
2022-09-17T13:01:25.641Z,1.92
2022-09-17T13:03:58.889Z,2.78
2022-09-17T13:06:56.849Z,2.53
2022-09-17T13:09:45.608Z,2.93
2022-09-17T13:15:06.725Z,3.20
2022-09-17T13:17:41.558Z,1.73
2022-09-17T13:20:17.743Z,2.63
2022-09-17T13:22:50.065Z,1.55
2022-09-17T13:25:21.192Z,1.70
2022-09-17T13:27:52.019Z,1.25
2022-09-17T13:30:20.837Z,1.00
2022-09-17T13:32:53.761Z,2.67
2022-09-17T13:35:50.963Z,1.50
2022-09-17T13:38:24.836Z,0.93
2022-09-17T13:40:53.658Z,1.48
2022-09-17T13:43:27.804Z,1.98
2022-09-17T13:46:15.734Z,1.38
2022-09-17T13:48:50.585Z,1.98
2022-09-17T13:51:52.964Z,1.40
2022-09-17T13:54:24.591Z,1.58
2022-09-17T13:57:12.588Z,0.70
2022-09-17T13:59:55.264Z,0.77
2022-09-17T14:02:36.447Z,0.38
2022-09-17T14:05:33.358Z,2.03
2022-09-17T14:08:31.151Z,1.95
2022-09-17T14:11:03.806Z,0.95
2022-09-17T14:13:47.033Z,1.08
2022-09-17T14:16:50.329Z,1.48
2022-09-17T14:19:40.845Z,3.50
2022-09-17T14:22:16.254Z,1.30
2022-09-17T14:24:50.193Z,0.80
2022-09-17T14:27:47.745Z,1.92
2022-09-17T14:30:20.198Z,1.05
2022-09-17T14:32:55.181Z,0.75
2022-09-17T14:35:30.092Z,1.17
2022-09-17T14:38:01.299Z,1.67
2022-09-17T14:40:30.380Z,1.52
2022-09-17T14:43:00.627Z,0.65
2022-09-17T14:45:32.833Z,1.25
2022-09-17T14:48:29.228Z,2.53
2022-09-17T14:51:33.742Z,0.98
2022-09-17T14:54:20.493Z,19.30
2022-09-17T14:56:55.573Z,9.55
2022-09-17T14:59:55.574Z,1.77
2022-09-17T15:02:30.279Z,4.55
2022-09-17T15:04:58.724Z,2.45
2022-09-17T15:07:27.712Z,2.58
2022-09-17T15:12:29.995Z,3.85
2022-09-17T15:14:59.920Z,5.40
2022-09-17T15:17:28.005Z,8.60
2022-09-17T15:19:59.251Z,2.13
2022-09-17T15:22:30.541Z,5.95
2022-09-17T15:25:03.878Z,10.40
2022-09-17T15:27:35.773Z,7.50
2022-09-17T15:30:07.778Z,5.13
2022-09-17T15:32:36.017Z,8.82
2022-09-17T15:35:23.894Z,4.13
2022-09-17T15:38:21.216Z,4.65
2022-09-17T15:40:42.646Z,6.80
2022-09-17T15:43:19.653Z,7.63
2022-09-17T15:45:49.181Z,4.35
2022-09-17T15:48:35.730Z,4.55
2022-09-17T15:51:06.979Z,7.05
2022-09-17T15:53:36.332Z,9.20
2022-09-17T15:56:07.251Z,8.73
2022-09-17T15:58:52.197Z,4.43
2022-09-17T16:01:56.227Z,2.38
2022-09-17T16:07:25.497Z,3.78
2022-09-17T16:12:23.592Z,3.05
2022-09-17T16:14:53.919Z,3.60
2022-09-17T16:17:24.967Z,3.55
2022-09-17T16:19:54.879Z,3.28
2022-09-17T16:22:23.325Z,5.32
2022-09-17T16:24:51.422Z,6.23
2022-09-17T16:27:23.225Z,3.20
2022-09-17T16:29:53.467Z,4.43
2022-09-17T16:32:21.532Z,3.30
2022-09-17T16:34:49.615Z,3.28
2022-09-17T16:37:19.085Z,3.33
2022-09-17T16:42:15.034Z,2.58
2022-09-17T16:44:43.116Z,5.25
2022-09-17T16:47:11.251Z,3.28
2022-09-17T16:49:39.325Z,3.15
2022-09-17T16:52:07.447Z,3.33
2022-09-17T16:54:37.062Z,3.88
2022-09-17T16:59:33.210Z,2.92
2022-09-17T17:02:01.513Z,4.30
2022-09-17T17:04:29.581Z,4.38
2022-09-17T17:06:57.668Z,4.10
2022-09-17T17:09:25.826Z,4.55
2022-09-17T17:11:56.124Z,2.42
2022-09-17T17:14:24.468Z,3.55
2022-09-17T17:16:52.581Z,4.63
2022-09-17T17:19:20.656Z,4.65
2022-09-17T17:21:51.638Z,4.85
2022-09-17T17:24:19.845Z,4.05
2022-09-17T17:26:49.133Z,4.32
2022-09-17T17:29:19.083Z,6.88
2022-09-17T17:31:49.552Z,9.45
2022-09-17T17:34:17.849Z,5.20
2022-09-17T17:36:45.984Z,4.72
2022-09-17T17:39:14.079Z,4.32
2022-09-17T17:41:42.172Z,7.93
2022-09-17T17:44:12.561Z,4.20
2022-09-17T17:46:42.170Z,7.22
2022-09-17T17:51:38.381Z,3.45
2022-09-17T17:54:06.660Z,4.20
2022-09-17T17:56:37.544Z,11.48
2022-09-17T17:59:06.021Z,4.90
2022-09-17T18:01:35.167Z,5.47
2022-09-17T18:04:08.160Z,4.22
2022-09-17T18:06:36.444Z,4.60
2022-09-17T18:09:06.057Z,4.65
2022-09-17T18:14:03.028Z,5.38
2022-09-17T18:16:31.480Z,3.75
2022-09-17T18:19:00.308Z,2.85
2022-09-17T18:21:29.890Z,6.10
2022-09-17T18:23:58.016Z,4.28
2022-09-17T18:26:28.344Z,4.40
2022-09-17T18:28:57.159Z,4.22
2022-09-17T18:31:27.547Z,6.83
2022-09-17T18:34:00.424Z,4.28
2022-09-17T18:36:31.765Z,2.97
2022-09-17T18:39:56.394Z,3.33
2022-09-17T18:41:50.914Z,6.88
2022-09-17T18:44:21.705Z,5.10
2022-09-17T18:46:51.330Z,6.15
2022-09-17T18:49:19.680Z,4.70
2022-09-17T18:51:49.176Z,3.28
2022-09-17T18:54:17.367Z,3.60
2022-09-17T18:56:45.528Z,4.88
2022-09-17T18:59:13.655Z,3.45
2022-09-17T19:01:41.973Z,4.07
2022-09-17T19:04:11.317Z,2.25
2022-09-17T19:06:39.497Z,3.85
2022-09-17T19:09:11.618Z,2.50
2022-09-17T19:11:39.704Z,2.85
2022-09-17T19:14:11.018Z,3.65
2022-09-17T19:16:39.102Z,4.28
2022-09-17T19:19:07.249Z,3.42
2022-09-17T19:21:35.306Z,4.38
2022-09-17T19:24:04.069Z,3.15
2022-09-17T19:26:33.569Z,4.82
2022-09-17T19:29:04.756Z,3.03
2022-09-17T19:31:32.927Z,6.32
2022-09-17T19:34:01.165Z,4.05
2022-09-17T19:36:29.344Z,3.40
2022-09-17T19:38:58.808Z,4.75
2022-09-17T19:41:27.242Z,1.75
2022-09-17T19:43:57.265Z,2.65
2022-09-17T19:46:27.575Z,4.28
2022-09-17T19:48:57.874Z,2.75
2022-09-17T19:51:28.438Z,2.85
2022-09-17T19:53:57.233Z,4.72
2022-09-17T19:56:27.762Z,3.10
2022-09-17T19:58:57.770Z,5.18
2022-09-17T20:01:26.019Z,2.10
2022-09-17T20:03:54.278Z,1.92
2022-09-17T20:06:23.930Z,4.97
2022-09-17T20:11:23.674Z,3.80
2022-09-17T20:13:52.264Z,3.05
2022-09-17T20:16:22.798Z,3.20
2022-09-17T20:18:51.349Z,2.67
2022-09-17T20:21:21.952Z,2.75
2022-09-17T20:23:50.346Z,4.03
2022-09-17T20:26:18.772Z,2.40
2022-09-17T20:28:47.503Z,4.80
2022-09-17T20:31:17.480Z,4.40
2022-09-17T20:33:48.180Z,3.42
2022-09-17T20:36:18.882Z,4.45
2022-09-17T20:41:36.612Z,3.88
2022-09-17T20:44:04.789Z,3.65
2022-09-17T20:46:32.934Z,3.85
2022-09-17T20:49:02.454Z,3.90
2022-09-17T20:51:32.741Z,1.90
2022-09-17T20:54:01.984Z,2.83
2022-09-17T20:56:33.290Z,3.72
2022-09-17T20:59:08.422Z,6.55
2022-09-17T21:01:37.777Z,5.20
2022-09-17T21:04:09.309Z,4.80
2022-09-17T21:06:40.728Z,3.58
2022-09-17T21:09:10.461Z,4.22
2022-09-17T21:11:39.118Z,4.63
2022-09-17T21:14:08.501Z,4.53
2022-09-17T21:16:36.708Z,3.33
2022-09-17T21:19:08.931Z,2.70
2022-09-17T21:21:37.121Z,3.40
2022-09-17T21:24:07.394Z,4.90
2022-09-17T21:26:36.024Z,3.80
2022-09-17T21:29:04.508Z,4.38
2022-09-17T21:31:34.392Z,3.10
2022-09-17T21:34:04.754Z,4.25
2022-09-17T21:36:37.981Z,1.95
2022-09-17T21:39:07.991Z,2.67
2022-09-17T21:41:41.427Z,2.75
2022-09-17T21:44:11.125Z,2.50
2022-09-17T21:46:39.859Z,2.67
2022-09-17T21:49:08.208Z,3.75
2022-09-17T21:51:39.197Z,2.22
2022-09-17T21:54:08.905Z,3.40
2022-09-17T21:56:37.654Z,3.40
2022-09-17T21:59:07.637Z,2.67
2022-09-17T22:01:39.860Z,3.13
2022-09-17T22:04:09.420Z,2.78
2022-09-17T22:06:39.472Z,2.08
2022-09-17T22:09:09.143Z,4.30
2022-09-17T22:11:38.813Z,2.00
2022-09-17T22:14:10.905Z,2.47
2022-09-17T22:16:40.905Z,2.33
2022-09-17T22:19:09.920Z,2.05
2022-09-17T22:21:41.259Z,2.37
2022-09-17T22:24:10.936Z,1.95
2022-09-17T22:26:40.611Z,2.17
2022-09-17T22:29:11.633Z,1.67
2022-09-17T22:31:40.065Z,1.80
2022-09-17T22:34:09.133Z,1.70
2022-09-17T22:36:37.586Z,1.40
2022-09-17T22:39:07.720Z,2.33
2022-09-17T22:41:37.719Z,2.50
2022-09-17T22:44:07.530Z,2.22
2022-09-17T22:46:39.329Z,2.22
2022-09-17T22:49:08.626Z,3.88
2022-09-17T22:51:36.999Z,4.93
2022-09-17T22:54:07.290Z,2.78
2022-09-17T22:56:36.671Z,1.70
2022-09-17T22:59:05.067Z,1.63
2022-09-17T23:01:36.382Z,1.98
2022-09-17T23:04:05.551Z,3.22
2022-09-17T23:06:35.104Z,2.50
2022-09-17T23:09:04.243Z,1.95
2022-09-17T23:11:35.314Z,1.40
2022-09-17T23:14:05.921Z,1.92
2022-09-17T23:16:37.314Z,1.83
2022-09-17T23:19:05.656Z,2.53
2022-09-17T23:21:34.120Z,2.97
2022-09-17T23:24:03.636Z,2.15
2022-09-17T23:26:33.390Z,1.63
2022-09-17T23:29:05.411Z,3.90
2022-09-17T23:31:35.778Z,1.33
2022-09-17T23:34:05.460Z,2.42
2022-09-17T23:36:54.383Z,1.30
2022-09-17T23:39:22.512Z,2.30
2022-09-17T23:41:51.989Z,1.02
2022-09-17T23:44:20.065Z,1.80
2022-09-17T23:46:48.251Z,2.88
2022-09-17T23:49:16.877Z,1.80
2022-09-17T23:51:45.300Z,1.98
2022-09-17T23:54:13.412Z,2.33
2022-09-17T23:56:41.604Z,1.70
2022-09-17T23:59:11.781Z,2.10
